Time;durP1;ratioP1;P1;durP2;ratioP2;P2;SDS_P1;SDS_P2;PMS_P1;PMS_P2;Temp;Humidity;BMP_temperature;BMP_pressure;BME280_temperature;BME280_humidity;BME280_pressure;Samples;Min_cycle;Max_cycle;Signal;HPM_P1;HPM_P2
2022/10/01 00:00:19;;;;;;;4.93;3.40;;;7.90;99.90;;;;;;5058506;28;20465;-65
2022/10/01 00:02:45;;;;;;;6.27;3.30;;;7.90;99.90;;;;;;5067614;28;20459;-65
2022/10/01 00:05:11;;;;;;;4.67;2.83;;;7.90;99.90;;;;;;5058669;28;20449;-65
2022/10/01 00:07:42;;;;;;;7.63;3.40;;;7.90;99.90;;;;;;5057361;28;21029;-65
2022/10/01 00:10:10;;;;;;;5.13;2.80;;;7.90;99.90;;;;;;5072997;28;20418;-65
2022/10/01 00:12:37;;;;;;;7.10;3.50;;;8.00;99.90;;;;;;5071145;28;20415;-65
2022/10/01 00:15:08;;;;;;;5.03;2.60;;;7.90;99.90;;;;;;5052495;28;20883;-65
2022/10/01 00:17:34;;;;;;;7.50;3.30;;;7.90;99.90;;;;;;5048833;28;20423;-65
2022/10/01 00:20:01;;;;;;;5.70;3.17;;;7.90;99.90;;;;;;5045658;28;20763;-63
2022/10/01 00:22:28;;;;;;;7.10;2.70;;;7.90;99.90;;;;;;5038815;28;20420;-63
2022/10/01 00:24:54;;;;;;;4.90;2.77;;;7.90;99.90;;;;;;5035223;28;20471;-64
2022/10/01 00:27:19;;;;;;;5.37;2.90;;;7.90;99.90;;;;;;5050115;28;20456;-64
2022/10/01 00:29:45;;;;;;;5.67;2.90;;;7.80;99.90;;;;;;5060105;28;20199;-64
2022/10/01 00:32:10;;;;;;;6.27;3.20;;;7.80;99.90;;;;;;5071602;28;20197;-63
2022/10/01 00:34:36;;;;;;;4.57;2.57;;;7.80;99.90;;;;;;5065370;28;20206;-64
2022/10/01 00:37:01;;;;;;;4.87;2.63;;;7.80;99.90;;;;;;5065321;28;20177;-63
2022/10/01 00:39:27;;;;;;;11.23;2.60;;;7.80;99.90;;;;;;5070018;28;20726;-64
2022/10/01 00:41:53;;;;;;;8.43;3.47;;;7.70;99.90;;;;;;5069397;28;20220;-64
2022/10/01 00:44:34;;;;;;;6.53;3.30;;;7.70;99.90;;;;;;5057264;28;20197;-64
2022/10/01 00:47:11;;;;;;;7.30;2.93;;;7.70;99.90;;;;;;5071941;28;20454;-64
2022/10/01 00:49:38;;;;;;;5.53;2.60;;;7.70;99.90;;;;;;5065470;28;20427;-64
2022/10/01 00:52:10;;;;;;;5.10;2.63;;;7.80;99.90;;;;;;5062949;28;20417;-64
2022/10/01 00:54:49;;;;;;;4.63;3.13;;;7.80;99.90;;;;;;5065646;28;20466;-64
2022/10/01 00:57:20;;;;;;;12.00;3.10;;;7.80;99.90;;;;;;5074468;28;20407;-64
2022/10/01 00:59:48;;;;;;;7.27;2.43;;;7.80;99.90;;;;;;5056034;28;20428;-65
2022/10/01 01:02:14;;;;;;;5.13;2.70;;;7.70;99.90;;;;;;5059472;28;20416;-65
2022/10/01 01:04:40;;;;;;;5.30;3.23;;;7.80;99.90;;;;;;5069129;28;20506;-64
2022/10/01 01:07:07;;;;;;;4.97;2.23;;;7.70;99.90;;;;;;5074158;28;20207;-65
2022/10/01 01:09:37;;;;;;;4.23;2.40;;;7.70;99.90;;;;;;5068757;28;20447;-65
2022/10/01 01:12:05;;;;;;;4.60;2.70;;;7.70;99.90;;;;;;5068603;28;20435;-65
2022/10/01 01:14:36;;;;;;;4.93;2.83;;;7.70;99.90;;;;;;5059154;28;20455;-65
2022/10/01 01:17:09;;;;;;;4.27;2.30;;;7.70;99.90;;;;;;5059799;28;20416;-65
2022/10/01 01:19:56;;;;;;;5.23;2.90;;;7.70;99.90;;;;;;5042330;28;20417;-65
2022/10/01 01:22:25;;;;;;;4.10;2.10;;;7.70;99.90;;;;;;5039078;28;20429;-65
2022/10/01 01:24:57;;;;;;;6.17;2.73;;;7.70;99.90;;;;;;5037236;28;20428;-65
2022/10/01 01:27:39;;;;;;;5.20;2.70;;;7.70;99.90;;;;;;5033953;28;20425;-65
2022/10/01 01:30:14;;;;;;;4.87;2.77;;;7.70;99.90;;;;;;5056497;28;20502;-64
2022/10/01 01:33:04;;;;;;;6.77;3.17;;;7.70;99.90;;;;;;5067614;28;20436;-65
2022/10/01 01:35:36;;;;;;;5.70;2.90;;;7.70;99.90;;;;;;5067111;28;20416;-65
2022/10/01 01:38:07;;;;;;;5.17;2.60;;;7.70;99.90;;;;;;5054048;28;20400;-65
2022/10/01 01:40:35;;;;;;;4.90;2.20;;;7.70;99.90;;;;;;5067028;28;20435;-65
2022/10/01 01:43:07;;;;;;;5.70;3.27;;;7.60;99.90;;;;;;5058634;28;20535;-65
2022/10/01 01:45:34;;;;;;;10.40;2.80;;;7.70;99.90;;;;;;5071623;28;20443;-65
2022/10/01 01:48:02;;;;;;;3.10;2.13;;;7.70;99.90;;;;;;5061632;28;20404;-65
2022/10/01 01:50:33;;;;;;;7.10;2.93;;;7.60;99.90;;;;;;5066409;28;20801;-65
2022/10/01 01:52:59;;;;;;;4.53;2.60;;;7.70;99.90;;;;;;5066080;28;20411;-65
2022/10/01 01:55:28;;;;;;;5.67;2.73;;;7.60;99.90;;;;;;5073172;28;20487;-65
2022/10/01 01:57:56;;;;;;;5.10;2.37;;;7.70;99.90;;;;;;5060127;28;20189;-65
2022/10/01 02:00:22;;;;;;;4.97;2.60;;;7.70;99.90;;;;;;5060910;28;20951;-65
2022/10/01 02:02:53;;;;;;;5.97;3.33;;;7.60;99.90;;;;;;5060453;28;20470;-65
2022/10/01 02:05:34;;;;;;;4.93;2.73;;;7.60;99.90;;;;;;5040817;28;20433;-65
2022/10/01 02:07:59;;;;;;;5.27;3.00;;;7.60;99.90;;;;;;5056216;28;20506;-65
2022/10/01 02:10:43;;;;;;;3.20;2.00;;;7.70;99.90;;;;;;5073230;28;20411;-65
2022/10/01 02:13:39;;;;;;;4.53;2.97;;;7.70;99.90;;;;;;5050406;28;20174;-65
2022/10/01 02:16:17;;;;;;;4.00;2.40;;;7.70;99.90;;;;;;5057836;28;20750;-65
2022/10/01 02:18:57;;;;;;;3.93;2.27;;;7.70;99.90;;;;;;5033229;28;20420;-65
2022/10/01 02:21:36;;;;;;;6.70;2.23;;;7.60;99.90;;;;;;5038359;28;20448;-65
2022/10/01 02:24:26;;;;;;;11.80;2.40;;;7.60;99.90;;;;;;5050751;28;20418;-65
2022/10/01 02:26:54;;;;;;;3.60;2.10;;;7.60;99.90;;;;;;5060553;28;20420;-65
2022/10/01 02:29:22;;;;;;;2.13;1.40;;;7.60;99.90;;;;;;5070695;28;20427;-65
2022/10/01 02:31:52;;;;;;;3.70;2.50;;;7.60;99.90;;;;;;5072156;28;20423;-64
2022/10/01 02:34:19;;;;;;;3.97;2.00;;;7.60;99.90;;;;;;5059391;28;20802;-64
2022/10/01 02:36:46;;;;;;;3.53;2.30;;;7.60;99.90;;;;;;5059473;28;20511;-64
2022/10/01 02:39:16;;;;;;;4.53;2.30;;;7.70;99.90;;;;;;5052555;28;20446;-65
2022/10/01 02:41:44;;;;;;;5.13;1.50;;;7.70;99.90;;;;;;5065424;28;20484;-64
2022/10/01 02:44:15;;;;;;;3.30;1.90;;;7.70;99.90;;;;;;5058899;28;20427;-64
2022/10/01 02:46:50;;;;;;;4.23;1.60;;;7.70;99.90;;;;;;5072093;28;20431;-64
2022/10/01 02:49:16;;;;;;;6.00;2.00;;;7.70;99.90;;;;;;5065242;28;20431;-65
2022/10/01 02:52:06;;;;;;;4.97;1.87;;;7.70;99.90;;;;;;5066576;28;20423;-65
2022/10/01 02:54:36;;;;;;;2.70;1.67;;;7.70;99.90;;;;;;5052151;28;20713;-65
2022/10/01 02:59:46;;;;;;;4.27;2.33;;;7.70;99.90;;;;;;5040106;28;20463;-65
2022/10/01 03:02:12;;;;;;;4.33;1.87;;;7.70;99.90;;;;;;5032797;28;20421;-65
2022/10/01 03:04:37;;;;;;;4.00;2.40;;;7.80;99.90;;;;;;5047239;28;20421;-65
2022/10/01 03:07:03;;;;;;;4.30;1.60;;;7.80;99.90;;;;;;5040689;28;20186;-64
2022/10/01 03:09:33;;;;;;;3.67;1.97;;;7.80;99.90;;;;;;5052032;28;20197;-64
2022/10/01 03:12:00;;;;;;;4.20;1.97;;;7.90;99.90;;;;;;5044563;28;20265;-65
2022/10/01 03:14:26;;;;;;;3.17;1.60;;;7.90;99.90;;;;;;5035328;28;20464;-65
2022/10/01 03:16:53;;;;;;;4.07;2.07;;;7.80;99.90;;;;;;5037603;28;20421;-66
2022/10/01 03:19:18;;;;;;;4.20;2.03;;;7.80;99.90;;;;;;5032416;28;20923;-66
2022/10/01 03:21:44;;;;;;;5.23;2.50;;;7.70;99.90;;;;;;5030713;28;20418;-65
2022/10/01 03:24:10;;;;;;;3.50;2.00;;;7.70;99.90;;;;;;5027659;28;20193;-65
2022/10/01 03:26:36;;;;;;;3.70;1.77;;;7.70;99.90;;;;;;5051782;28;20186;-65
2022/10/01 03:29:03;;;;;;;4.20;1.60;;;7.70;99.90;;;;;;5047128;28;20269;-65
2022/10/01 03:31:29;;;;;;;3.50;2.13;;;7.70;99.90;;;;;;5031188;28;20186;-66
2022/10/01 03:33:56;;;;;;;3.87;2.07;;;7.60;99.90;;;;;;5035596;28;20471;-65
2022/10/01 03:36:22;;;;;;;3.33;2.20;;;7.60;99.90;;;;;;5051953;28;20260;-65
2022/10/01 03:38:48;;;;;;;3.33;1.67;;;7.60;99.90;;;;;;5038060;28;20508;-65
2022/10/01 03:41:13;;;;;;;6.60;2.90;;;7.60;99.90;;;;;;5051533;28;20284;-65
2022/10/01 03:43:39;;;;;;;4.30;1.87;;;7.60;99.90;;;;;;5037483;28;20227;-65
2022/10/01 03:46:04;;;;;;;3.60;2.10;;;7.60;99.90;;;;;;5051332;28;20192;-65
2022/10/01 03:48:30;;;;;;;2.60;1.30;;;7.60;99.90;;;;;;5035854;28;20198;-65
2022/10/01 03:50:57;;;;;;;3.30;2.07;;;7.60;99.90;;;;;;5042422;28;20189;-65
2022/10/01 03:53:25;;;;;;;2.90;1.53;;;7.60;99.90;;;;;;5050345;28;20229;-65
2022/10/01 03:55:51;;;;;;;4.53;2.40;;;7.60;99.90;;;;;;5051589;28;20455;-65
2022/10/01 03:58:17;;;;;;;2.23;1.17;;;7.70;99.90;;;;;;5050978;28;20416;-64
2022/10/01 04:00:45;;;;;;;4.00;1.30;;;7.70;99.90;;;;;;5051068;28;20182;-65
2022/10/01 04:03:10;;;;;;;3.17;1.60;;;7.70;99.90;;;;;;5037501;28;20815;-65
2022/10/01 04:05:36;;;;;;;4.87;1.80;;;7.70;99.90;;;;;;5051386;28;20428;-65
2022/10/01 04:08:01;;;;;;;3.63;1.43;;;7.70;99.90;;;;;;5048979;28;20182;-65
2022/10/01 04:10:27;;;;;;;2.60;1.30;;;7.70;99.90;;;;;;5042252;28;20264;-65
2022/10/01 04:12:54;;;;;;;3.47;1.90;;;7.70;99.90;;;;;;5043363;28;20187;-65
2022/10/01 04:15:21;;;;;;;3.50;1.60;;;7.80;99.90;;;;;;5041139;28;20239;-65
2022/10/01 04:17:47;;;;;;;2.10;1.10;;;7.70;99.90;;;;;;5034125;28;20453;-65
2022/10/01 04:20:13;;;;;;;4.13;1.83;;;7.70;99.90;;;;;;5032467;28;20523;-65
2022/10/01 04:22:40;;;;;;;3.40;1.43;;;7.70;99.90;;;;;;5029891;28;20421;-65
2022/10/01 04:25:09;;;;;;;4.23;1.67;;;7.70;99.90;;;;;;5032839;28;20466;-65
2022/10/01 04:27:36;;;;;;;3.30;1.63;;;7.70;99.90;;;;;;5050335;28;21199;-65
2022/10/01 04:30:03;;;;;;;2.47;1.17;;;7.70;99.90;;;;;;5039694;28;20421;-65
2022/10/01 04:32:28;;;;;;;3.37;1.50;;;7.70;99.90;;;;;;5030732;28;20424;-65
2022/10/01 04:34:54;;;;;;;3.63;1.43;;;7.80;99.90;;;;;;5042506;28;20460;-65
2022/10/01 04:37:20;;;;;;;2.63;1.37;;;7.80;99.90;;;;;;5046660;28;20625;-65
2022/10/01 04:39:47;;;;;;;4.40;1.30;;;7.90;99.90;;;;;;5033440;28;20187;-65
2022/10/01 04:42:13;;;;;;;4.23;1.73;;;7.80;99.90;;;;;;5052002;28;20436;-65
2022/10/01 04:44:39;;;;;;;2.27;0.70;;;7.90;99.90;;;;;;5035382;28;20428;-65
2022/10/01 04:47:06;;;;;;;2.50;1.20;;;7.90;99.90;;;;;;5047898;28;20532;-65
2022/10/01 04:49:32;;;;;;;3.67;1.43;;;7.90;99.90;;;;;;5046187;28;20748;-65
2022/10/01 04:51:59;;;;;;;14.00;1.80;;;8.00;99.90;;;;;;5041817;28;20914;-65
2022/10/01 04:54:24;;;;;;;5.93;1.40;;;8.00;99.90;;;;;;5036174;28;20464;-65
2022/10/01 04:56:50;;;;;;;2.93;1.17;;;8.00;99.90;;;;;;5049495;28;20447;-65
2022/10/01 04:59:17;;;;;;;2.33;1.13;;;8.00;99.90;;;;;;5035365;28;20217;-65
2022/10/01 05:01:42;;;;;;;1.70;1.27;;;8.10;99.90;;;;;;5039812;28;20175;-65
2022/10/01 05:04:08;;;;;;;2.57;1.20;;;8.10;99.90;;;;;;5045408;28;20423;-65
2022/10/01 05:06:34;;;;;;;1.97;1.10;;;8.10;99.90;;;;;;5042538;28;20206;-64
2022/10/01 05:08:59;;;;;;;11.37;1.33;;;8.10;99.90;;;;;;5054107;28;20197;-65
2022/10/01 05:11:25;;;;;;;1.50;0.90;;;8.10;99.90;;;;;;5041206;28;20631;-65
2022/10/01 05:13:51;;;;;;;1.90;1.00;;;8.20;99.90;;;;;;5022425;28;20209;-64
2022/10/01 05:16:17;;;;;;;2.20;1.23;;;8.20;99.90;;;;;;5042221;28;20190;-64
2022/10/01 05:18:42;;;;;;;3.40;1.47;;;8.20;99.90;;;;;;5045481;28;20209;-65
2022/10/01 05:21:14;;;;;;;1.70;1.00;;;8.10;99.90;;;;;;5048943;28;20707;-65
2022/10/01 05:23:40;;;;;;;2.33;0.80;;;8.10;99.90;;;;;;5031682;28;20592;-65
2022/10/01 05:26:07;;;;;;;2.20;1.07;;;8.10;99.90;;;;;;5051093;28;20765;-65
2022/10/01 05:28:33;;;;;;;3.73;1.30;;;8.20;99.90;;;;;;5053633;28;20999;-65
2022/10/01 05:31:02;;;;;;;1.53;0.70;;;8.20;99.90;;;;;;5036487;28;20424;-65
2022/10/01 05:33:29;;;;;;;1.70;1.00;;;8.20;99.90;;;;;;5045894;28;20460;-65
2022/10/01 05:35:56;;;;;;;1.60;0.90;;;8.20;99.90;;;;;;5053695;28;20423;-65
2022/10/01 05:38:21;;;;;;;1.73;0.77;;;8.20;99.90;;;;;;5053545;28;20515;-65
2022/10/01 05:40:47;;;;;;;2.27;1.17;;;8.30;99.90;;;;;;5040857;28;20874;-65
2022/10/01 05:43:13;;;;;;;2.17;1.30;;;8.30;99.90;;;;;;5044382;28;20221;-65
2022/10/01 05:45:40;;;;;;;2.80;1.33;;;8.30;99.90;;;;;;5040342;28;20202;-65
2022/10/01 05:48:07;;;;;;;4.57;1.47;;;8.30;99.90;;;;;;5053370;28;20433;-65
2022/10/01 05:50:38;;;;;;;11.73;4.90;;;8.30;99.90;;;;;;5047473;28;20421;-65
2022/10/01 05:53:04;;;;;;;18.97;7.63;;;8.30;99.90;;;;;;5034829;28;20499;-65
2022/10/01 05:55:33;;;;;;;87.50;20.27;;;8.40;99.90;;;;;;5041841;28;20417;-65
2022/10/01 05:58:07;;;;;;;74.10;21.83;;;8.40;99.90;;;;;;5035402;28;20910;-65
2022/10/01 06:00:33;;;;;;;18.80;5.83;;;8.50;99.90;;;;;;5053023;28;20416;-65
2022/10/01 06:03:00;;;;;;;4.20;2.07;;;8.40;99.90;;;;;;5022410;28;20840;-65
2022/10/01 06:05:27;;;;;;;2.93;1.57;;;8.40;99.90;;;;;;5046650;28;20417;-65
2022/10/01 06:07:53;;;;;;;2.80;1.43;;;8.40;99.90;;;;;;5036980;28;20476;-65
2022/10/01 06:10:20;;;;;;;2.43;1.00;;;8.40;99.90;;;;;;5041839;28;20459;-65
2022/10/01 06:12:47;;;;;;;3.10;1.00;;;8.50;99.90;;;;;;5046402;28;20178;-65
2022/10/01 06:15:13;;;;;;;2.67;1.00;;;8.50;99.90;;;;;;5040837;28;20518;-65
2022/10/01 06:17:45;;;;;;;4.60;1.60;;;8.50;99.90;;;;;;5036698;28;20490;-65
2022/10/01 06:20:16;;;;;;;1.73;0.90;;;8.50;99.90;;;;;;5033878;28;20420;-65
2022/10/01 06:22:42;;;;;;;2.50;1.27;;;8.50;99.90;;;;;;5031519;28;20455;-65
2022/10/01 06:25:13;;;;;;;2.60;1.23;;;8.50;99.90;;;;;;5024673;28;20433;-65
2022/10/01 06:27:39;;;;;;;2.47;1.20;;;8.50;99.90;;;;;;5020071;28;21028;-65
2022/10/01 06:30:06;;;;;;;2.30;1.10;;;8.60;99.90;;;;;;5052482;28;20451;-65
2022/10/01 06:32:31;;;;;;;2.60;1.57;;;8.60;99.90;;;;;;5044977;28;20233;-65
2022/10/01 06:34:57;;;;;;;1.40;0.80;;;8.70;99.90;;;;;;5044438;28;20455;-64
2022/10/01 06:37:23;;;;;;;6.10;1.27;;;8.70;99.90;;;;;;5048504;28;20185;-65
2022/10/01 06:39:49;;;;;;;2.87;1.13;;;8.70;99.90;;;;;;5044574;28;20169;-65
2022/10/01 06:42:14;;;;;;;2.57;1.37;;;8.80;99.90;;;;;;5035560;28;20516;-64
2022/10/01 06:44:41;;;;;;;2.10;1.20;;;8.90;99.90;;;;;;5033461;28;20189;-65
2022/10/01 06:47:07;;;;;;;2.60;0.93;;;8.90;99.90;;;;;;5046612;28;20186;-65
2022/10/01 06:49:33;;;;;;;7.97;1.50;;;9.00;99.90;;;;;;5044253;28;20462;-65
2022/10/01 06:54:43;;;;;;;2.57;1.03;;;9.00;99.90;;;;;;5039955;28;20503;-65
2022/10/01 06:57:09;;;;;;;1.43;0.90;;;9.00;99.90;;;;;;5052141;28;20625;-65
2022/10/01 06:59:36;;;;;;;2.00;1.07;;;9.00;99.90;;;;;;5039247;28;20175;-65
2022/10/01 07:02:02;;;;;;;4.13;1.20;;;9.00;99.90;;;;;;5045500;28;20178;-64
2022/10/01 07:04:28;;;;;;;2.17;0.93;;;9.10;99.90;;;;;;5046302;28;20463;-65
2022/10/01 07:06:54;;;;;;;2.47;0.80;;;9.10;99.90;;;;;;5039761;28;20416;-65
2022/10/01 07:09:25;;;;;;;1.60;0.80;;;9.10;99.90;;;;;;5051954;28;20919;-65
2022/10/01 07:11:56;;;;;;;2.23;0.87;;;9.10;99.90;;;;;;5021242;28;20417;-65
2022/10/01 07:14:21;;;;;;;6.80;1.00;;;9.10;99.90;;;;;;5035443;28;20465;-65
2022/10/01 07:16:47;;;;;;;2.00;0.60;;;9.10;99.90;;;;;;5037721;28;20480;-65
2022/10/01 07:19:12;;;;;;;2.23;1.13;;;9.20;99.90;;;;;;5033107;28;20260;-65
2022/10/01 07:21:38;;;;;;;2.43;1.07;;;9.20;99.90;;;;;;5030457;28;20190;-65
2022/10/01 07:24:04;;;;;;;1.40;0.83;;;9.20;99.90;;;;;;5025824;28;20209;-65
2022/10/01 07:26:29;;;;;;;2.10;0.67;;;9.20;99.90;;;;;;5042987;28;20196;-65
2022/10/01 07:28:55;;;;;;;5.87;1.23;;;9.10;99.90;;;;;;5031256;28;20197;-64
2022/10/01 07:31:22;;;;;;;1.90;1.20;;;9.10;99.90;;;;;;5031637;28;20186;-64
2022/10/01 07:33:48;;;;;;;2.17;1.20;;;9.10;99.90;;;;;;5046604;28;20217;-64
2022/10/01 07:36:14;;;;;;;2.10;0.90;;;9.10;99.90;;;;;;5051767;28;20955;-65
2022/10/01 07:38:42;;;;;;;3.00;1.53;;;9.10;99.90;;;;;;5049452;28;20217;-65
2022/10/01 07:41:08;;;;;;;1.50;0.93;;;9.10;99.90;;;;;;5031877;28;20198;-65
2022/10/01 07:43:35;;;;;;;2.00;1.00;;;9.10;99.90;;;;;;5032823;28;20449;-65
2022/10/01 07:46:02;;;;;;;1.50;0.83;;;9.10;99.90;;;;;;5051350;28;20779;-65
2022/10/01 07:48:27;;;;;;;2.03;0.70;;;9.10;99.90;;;;;;5050237;28;20430;-64
2022/10/01 07:50:53;;;;;;;1.70;0.90;;;9.10;99.90;;;;;;5043858;28;20421;-64
2022/10/01 07:53:19;;;;;;;4.33;0.93;;;9.10;99.90;;;;;;5032820;28;20213;-65
2022/10/01 07:55:45;;;;;;;3.03;1.10;;;9.10;99.90;;;;;;5032642;28;20228;-65
2022/10/01 07:58:11;;;;;;;3.40;0.97;;;9.10;99.90;;;;;;5034036;28;20229;-65
2022/10/01 08:00:37;;;;;;;1.70;0.77;;;9.10;99.90;;;;;;5045133;28;20186;-65
2022/10/01 08:03:04;;;;;;;2.77;1.10;;;9.10;99.90;;;;;;5033217;28;20417;-64
2022/10/01 08:05:33;;;;;;;1.83;1.07;;;9.10;99.90;;;;;;5051522;28;20411;-65
2022/10/01 08:08:00;;;;;;;2.30;1.23;;;9.10;99.90;;;;;;5039201;28;20464;-64
2022/10/01 08:10:26;;;;;;;1.97;0.80;;;9.00;99.90;;;;;;5051345;28;20452;-64
2022/10/01 08:12:58;;;;;;;1.90;0.80;;;9.00;99.90;;;;;;5037142;28;20460;-65
2022/10/01 08:15:24;;;;;;;1.90;1.00;;;9.10;99.90;;;;;;5038036;28;20459;-65
2022/10/01 08:17:50;;;;;;;2.27;1.00;;;9.10;99.90;;;;;;5050839;28;20419;-65
2022/10/01 08:20:15;;;;;;;1.60;0.90;;;9.10;99.90;;;;;;5036119;28;20182;-65
2022/10/01 08:22:41;;;;;;;1.50;0.90;;;9.10;99.90;;;;;;5047770;28;20225;-65
2022/10/01 08:25:07;;;;;;;1.40;0.80;;;9.10;99.90;;;;;;5038727;28;20631;-65
2022/10/01 08:27:32;;;;;;;1.83;0.97;;;9.10;99.90;;;;;;5053898;28;20215;-65
2022/10/01 08:29:58;;;;;;;2.03;1.10;;;9.10;99.90;;;;;;5044368;28;20182;-65
2022/10/01 08:32:25;;;;;;;2.23;1.07;;;9.10;99.90;;;;;;5039807;28;20186;-65
2022/10/01 08:34:54;;;;;;;2.40;1.10;;;9.10;99.90;;;;;;5055122;28;20220;-65
2022/10/01 08:37:22;;;;;;;2.83;1.33;;;9.10;99.90;;;;;;5054573;28;20523;-65
2022/10/01 08:39:48;;;;;;;3.03;1.23;;;9.10;99.90;;;;;;5055127;28;20424;-65
2022/10/01 08:42:35;;;;;;;1.90;1.00;;;9.10;99.90;;;;;;5041658;28;20840;-65
2022/10/01 08:45:05;;;;;;;1.97;1.20;;;9.10;99.90;;;;;;5031972;28;20202;-65
2022/10/01 08:47:36;;;;;;;1.70;1.00;;;9.10;99.90;;;;;;5046607;28;20429;-65
2022/10/01 08:50:21;;;;;;;1.90;0.83;;;9.00;99.90;;;;;;5048698;28;20419;-64
2022/10/01 08:53:00;;;;;;;4.00;1.30;;;9.10;99.90;;;;;;4984676;28;21232;-64
2022/10/01 08:55:34;;;;;;;2.53;1.20;;;9.10;99.90;;;;;;5041830;28;20455;-65
2022/10/01 08:58:05;;;;;;;1.80;1.07;;;9.20;99.90;;;;;;5054336;28;20427;-65
2022/10/01 09:00:35;;;;;;;2.00;1.30;;;9.20;99.90;;;;;;5054061;28;20423;-65
2022/10/01 09:03:05;;;;;;;1.93;0.80;;;9.30;99.90;;;;;;5026203;28;20425;-64
2022/10/01 09:05:50;;;;;;;4.13;1.43;;;9.40;99.90;;;;;;5051170;28;20416;-65
2022/10/01 09:08:47;;;;;;;2.27;1.40;;;9.40;99.90;;;;;;5034911;28;20436;-65
2022/10/01 09:11:58;;;;;;;2.27;1.30;;;9.40;99.90;;;;;;5051272;28;20507;-64
2022/10/01 09:14:51;;;;;;;3.30;0.90;;;9.50;99.90;;;;;;5019175;28;20464;-65
2022/10/01 09:17:18;;;;;;;2.17;1.13;;;9.60;99.90;;;;;;5021016;28;20521;-65
2022/10/01 09:20:03;;;;;;;2.90;1.10;;;9.60;99.90;;;;;;5028853;28;20416;-65
2022/10/01 09:23:14;;;;;;;1.43;0.67;;;9.60;99.90;;;;;;5039750;28;20426;-65
2022/10/01 09:25:41;;;;;;;2.17;0.70;;;9.60;99.90;;;;;;4992496;28;20435;-65
2022/10/01 09:28:20;;;;;;;2.37;1.30;;;9.70;99.90;;;;;;5031696;28;20408;-66
2022/10/01 09:30:57;;;;;;;1.57;0.73;;;9.70;99.90;;;;;;5042033;28;20764;-65
2022/10/01 09:33:33;;;;;;;1.83;0.70;;;9.70;99.90;;;;;;5042624;28;20462;-65
2022/10/01 09:36:14;;;;;;;1.90;1.00;;;9.70;99.90;;;;;;5053565;28;20448;-65
2022/10/01 09:38:47;;;;;;;1.80;1.00;;;9.70;99.90;;;;;;5053522;28;20449;-65
2022/10/01 09:41:13;;;;;;;2.13;0.97;;;9.70;99.90;;;;;;5046896;28;20437;-65
2022/10/01 09:43:41;;;;;;;2.47;1.20;;;9.80;99.90;;;;;;5041943;28;20484;-65
2022/10/01 09:46:14;;;;;;;2.13;1.20;;;9.90;99.90;;;;;;5053250;28;20428;-65
2022/10/01 09:48:58;;;;;;;2.30;0.70;;;9.90;99.90;;;;;;5043872;28;20435;-65
2022/10/01 09:51:41;;;;;;;1.40;0.70;;;10.00;99.90;;;;;;5044282;28;20429;-65
2022/10/01 09:54:30;;;;;;;2.23;1.03;;;10.10;99.90;;;;;;5023924;28;20464;-65
2022/10/01 09:57:06;;;;;;;2.90;0.90;;;10.00;99.90;;;;;;5046279;28;20428;-65
2022/10/01 09:59:48;;;;;;;1.77;0.90;;;10.10;99.90;;;;;;5045704;28;20499;-65
2022/10/01 10:02:30;;;;;;;1.60;0.70;;;10.10;99.90;;;;;;5040861;28;20430;-65
2022/10/01 10:05:05;;;;;;;2.43;0.80;;;10.00;99.90;;;;;;5053378;28;20458;-65
2022/10/01 10:07:33;;;;;;;1.70;0.90;;;10.00;99.90;;;;;;5035407;28;20771;-65
2022/10/01 10:10:16;;;;;;;2.03;1.00;;;10.00;99.90;;;;;;5046421;28;20453;-65
2022/10/01 10:12:42;;;;;;;1.50;0.70;;;10.10;99.90;;;;;;5043277;28;20484;-65
2022/10/01 10:15:17;;;;;;;4.07;1.00;;;10.00;99.90;;;;;;5039658;28;20510;-65
2022/10/01 10:17:48;;;;;;;2.27;0.80;;;10.10;99.90;;;;;;5019665;28;20417;-65
2022/10/01 10:20:37;;;;;;;1.40;0.70;;;10.00;99.90;;;;;;5025789;28;20910;-66
2022/10/01 10:23:20;;;;;;;6.40;0.90;;;10.00;99.90;;;;;;5032885;28;20535;-65
2022/10/01 10:25:55;;;;;;;1.63;0.80;;;10.00;99.90;;;;;;5047207;28;20436;-65
2022/10/01 10:28:23;;;;;;;1.70;0.70;;;10.10;99.90;;;;;;5041369;28;20413;-66
2022/10/01 10:30:54;;;;;;;2.03;0.60;;;9.90;99.90;;;;;;5032801;28;20793;-65
2022/10/01 10:33:22;;;;;;;1.70;0.63;;;9.90;99.90;;;;;;5039821;28;20758;-66
2022/10/01 10:36:03;;;;;;;2.07;0.70;;;9.90;99.90;;;;;;5046008;28;20445;-65
2022/10/01 10:38:33;;;;;;;1.80;0.63;;;9.90;99.90;;;;;;5045445;28;20412;-66
2022/10/01 10:41:00;;;;;;;2.07;1.20;;;9.90;99.90;;;;;;5032761;28;20794;-65
2022/10/01 10:43:32;;;;;;;2.80;1.00;;;9.90;99.90;;;;;;5031819;28;20413;-66
2022/10/01 10:45:59;;;;;;;1.30;0.70;;;10.00;99.90;;;;;;5041972;28;20454;-66
2022/10/01 10:48:31;;;;;;;1.70;0.70;;;10.00;99.90;;;;;;5051326;28;20997;-66
2022/10/01 10:51:00;;;;;;;1.10;0.50;;;10.00;99.90;;;;;;5052059;28;20435;-66
2022/10/01 10:53:27;;;;;;;1.80;0.90;;;10.00;99.90;;;;;;5051013;28;20424;-66
2022/10/01 10:55:59;;;;;;;1.40;0.80;;;10.20;99.90;;;;;;5041500;28;20425;-66
2022/10/01 10:58:32;;;;;;;3.93;0.60;;;10.20;99.90;;;;;;5033902;28;20467;-66
2022/10/01 11:01:03;;;;;;;2.47;0.93;;;10.20;99.90;;;;;;5044888;28;20426;-66
2022/10/01 11:03:31;;;;;;;1.83;0.77;;;10.20;99.90;;;;;;5035157;28;20440;-66
2022/10/01 11:06:10;;;;;;;1.50;0.67;;;10.30;99.90;;;;;;5045961;28;20416;-66
2022/10/01 11:08:36;;;;;;;1.30;0.50;;;10.30;99.90;;;;;;5052041;28;20424;-65
2022/10/01 11:11:31;;;;;;;1.60;0.90;;;10.40;99.90;;;;;;5035860;28;20449;-66
2022/10/01 11:14:27;;;;;;;1.20;0.50;;;10.30;99.90;;;;;;5028916;28;20459;-66
2022/10/01 11:17:17;;;;;;;1.53;0.70;;;10.40;99.90;;;;;;5033741;28;20417;-66
2022/10/01 11:19:53;;;;;;;1.23;0.63;;;10.50;99.90;;;;;;5020152;28;20456;-66
2022/10/01 11:22:21;;;;;;;1.23;0.60;;;10.50;99.90;;;;;;5040739;28;20760;-66
2022/10/01 11:25:18;;;;;;;1.20;0.60;;;10.50;99.90;;;;;;5045196;28;20417;-66
2022/10/01 11:27:56;;;;;;;1.17;0.50;;;10.60;99.90;;;;;;5050619;28;20980;-66
2022/10/01 11:30:24;;;;;;;1.13;0.40;;;10.70;99.90;;;;;;5051287;28;20470;-66
2022/10/01 11:33:21;;;;;;;1.10;0.40;;;10.60;99.90;;;;;;5025910;28;20452;-66
2022/10/01 11:36:07;;;;;;;1.20;0.50;;;10.60;99.90;;;;;;5021207;28;20832;-66
2022/10/01 11:38:48;;;;;;;1.20;0.50;;;10.60;99.90;;;;;;5038630;28;20409;-65
2022/10/01 11:41:35;;;;;;;1.30;0.60;;;10.50;99.90;;;;;;5041491;28;20772;-66
2022/10/01 11:44:28;;;;;;;1.67;0.70;;;10.50;99.90;;;;;;5038302;28;20457;-66
2022/10/01 11:47:26;;;;;;;1.90;0.60;;;10.60;99.90;;;;;;5023202;28;20885;-65
2022/10/01 11:50:01;;;;;;;1.30;0.70;;;10.60;99.90;;;;;;5045098;28;20523;-65
2022/10/01 11:52:48;;;;;;;2.10;0.50;;;10.70;99.90;;;;;;5020724;28;20474;-65
2022/10/01 12:01:41;;;;;;;1.30;0.60;;;10.90;99.90;;;;;;5038565;28;20436;-65
2022/10/01 12:04:16;;;;;;;2.70;0.60;;;11.00;99.90;;;;;;5024768;28;20431;-66
2022/10/01 12:06:59;;;;;;;1.40;0.60;;;11.10;99.90;;;;;;5034183;28;20417;-66
2022/10/01 12:09:40;;;;;;;1.30;0.70;;;11.10;99.90;;;;;;5045786;28;20416;-66
2022/10/01 12:12:08;;;;;;;1.63;0.60;;;11.20;99.90;;;;;;5024316;28;20918;-66
2022/10/01 12:14:39;;;;;;;1.20;0.50;;;11.20;99.90;;;;;;5037499;28;20461;-66
2022/10/01 12:17:21;;;;;;;1.30;0.60;;;11.20;99.90;;;;;;5037381;28;20421;-66
2022/10/01 12:19:50;;;;;;;2.07;0.60;;;11.20;99.90;;;;;;5038550;28;20531;-66
2022/10/01 12:22:20;;;;;;;1.40;0.70;;;11.20;99.90;;;;;;5045068;28;20408;-66
2022/10/01 12:24:46;;;;;;;1.70;0.70;;;11.20;99.90;;;;;;5023329;28;20421;-66
2022/10/01 12:27:28;;;;;;;1.87;0.80;;;11.20;99.90;;;;;;5046161;28;20420;-66
2022/10/01 12:30:23;;;;;;;1.20;0.50;;;11.20;99.90;;;;;;5041822;28;20409;-65
2022/10/01 12:33:07;;;;;;;1.30;0.60;;;11.20;99.90;;;;;;5038776;28;20788;-66
2022/10/01 12:35:34;;;;;;;1.30;0.60;;;11.30;99.90;;;;;;5048491;28;20467;-66
2022/10/01 12:38:02;;;;;;;1.97;0.80;;;11.30;99.90;;;;;;5041519;28;20448;-66
2022/10/01 12:40:46;;;;;;;1.40;0.60;;;11.30;99.90;;;;;;5038763;28;20429;-65
2022/10/01 12:43:34;;;;;;;1.17;0.40;;;11.30;99.90;;;;;;5036858;28;20417;-66
2022/10/01 12:46:26;;;;;;;1.40;0.70;;;11.40;99.90;;;;;;5021979;28;20459;-66
2022/10/01 12:48:53;;;;;;;1.30;0.60;;;11.40;99.90;;;;;;5033515;28;20413;-65
2022/10/01 12:51:32;;;;;;;1.30;0.50;;;11.50;99.90;;;;;;5032133;28;20755;-66
2022/10/01 12:54:16;;;;;;;1.27;0.53;;;11.60;99.90;;;;;;5003262;28;20616;-66
2022/10/01 12:56:50;;;;;;;1.90;0.67;;;11.70;99.90;;;;;;5033369;28;20914;-66
2022/10/01 12:59:39;;;;;;;1.30;0.60;;;11.70;99.90;;;;;;5042281;28;20869;-66
2022/10/01 13:02:43;;;;;;;1.40;0.60;;;11.70;99.90;;;;;;5020038;28;20439;-66
2022/10/01 13:05:53;;;;;;;1.20;0.50;;;11.70;99.90;;;;;;5043247;28;20428;-65
2022/10/01 13:08:52;;;;;;;3.43;0.77;;;11.70;99.90;;;;;;5036071;28;20512;-66
2022/10/01 13:11:37;;;;;;;1.40;0.70;;;11.70;99.90;;;;;;5037521;28;20458;-66
2022/10/01 13:14:06;;;;;;;5.53;0.83;;;11.70;99.90;;;;;;5034424;28;20460;-66
2022/10/01 13:16:43;;;;;;;1.30;0.60;;;11.70;99.90;;;;;;5028541;28;20416;-65
2022/10/01 13:19:18;;;;;;;1.80;0.63;;;11.70;99.90;;;;;;5052458;28;20812;-65
2022/10/01 13:22:06;;;;;;;2.13;0.70;;;11.70;99.90;;;;;;5023030;28;20516;-65
2022/10/01 13:24:35;;;;;;;2.17;1.17;;;11.80;99.90;;;;;;5040686;28;20424;-65
2022/10/01 13:27:03;;;;;;;1.40;0.60;;;11.90;99.90;;;;;;5053607;28;20428;-65
2022/10/01 13:30:14;;;;;;;1.70;0.63;;;12.10;99.90;;;;;;5034176;28;20426;-65